This is the latest recevied weather packets stored in our database for station/object GBTWP-2. If no packets are shown the sender has not sent any weather packets the latest 10 day(s).
| Time | Temp. | Humidity | Pressure | Rain* | Wind** | Luminosity | Snow |
|---|---|---|---|---|---|---|---|
| 1777661101 | 8.89° C | 53% | 1016.7 hPa | 0 mm | - | 99 W/m² | - |
| 1777660802 | 8.89° C | 54% | 1016.3 hPa | 0 mm | - | 131 W/m² | - |
| 1777660202 | 8.33° C | 59% | 1016.4 hPa | 0 mm | - | 152 W/m² | - |
| 1777659902 | 7.78° C | 57% | 1016.6 hPa | 0 mm | - | 116 W/m² | - |
| 1777659602 | 7.78° C | 56% | 1016.5 hPa | 0 mm | - | 68 W/m² | - |
| 1777659302 | 8.33° C | 56% | 1016.3 hPa | 0 mm | - | 57 W/m² | - |
| 1777659002 | 8.33° C | 56% | 1016.6 hPa | 0 mm | - | 74 W/m² | - |
| 1777658702 | 8.89° C | 56% | 1016.4 hPa | 0 mm | - | 110 W/m² | - |
| 1777658401 | 8.89° C | 56% | 1016.5 hPa | 0 mm | - | 160 W/m² | - |
| 1777657802 | 8.33° C | 58% | 1016.7 hPa | 0 mm | - | 142 W/m² | - |
| 1777657202 | 8.33° C | 57% | 1016.4 hPa | 0 mm | - | 97 W/m² | - |
| 1777656902 | 8.33° C | 55% | 1016.5 hPa | 0 mm | - | 63 W/m² | - |
| 1777656602 | 8.33° C | 56% | 1016.5 hPa | 0 mm | - | 128 W/m² | - |
| 1777656302 | 8.33° C | 58% | 1016.5 hPa | 0 mm | - | 141 W/m² | - |
| 1777655702 | 8.33° C | 59% | 1016.4 hPa | 0 mm | - | 164 W/m² | - |
| 1777655402 | 7.78° C | 60% | 1016.4 hPa | 0 mm | - | 111 W/m² | - |
| 1777655102 | 7.78° C | 59% | 1016.6 hPa | 0 mm | - | 107 W/m² | - |
| 1777654802 | 7.78° C | 58% | 1016.5 hPa | 0 mm | - | 71 W/m² | - |
| 1777654502 | 8.33° C | 56% | 1016.5 hPa | 0 mm | - | 78 W/m² | - |
| 1777654202 | 7.78° C | 61% | 1016.6 hPa | 0 mm | - | 93 W/m² | - |
| 1777653902 | 7.78° C | 61% | 1016.5 hPa | 0 mm | - | 97 W/m² | - |
| 1777653602 | 7.78° C | 62% | 1016.5 hPa | 0 mm | - | 92 W/m² | - |
| 1777653301 | 7.78° C | 62% | 1016.5 hPa | 0 mm | - | 84 W/m² | - |
| 1777653002 | 7.22° C | 62% | 1016.6 hPa | 0 mm | - | 62 W/m² | - |
| 1777651802 | 8.33° C | 57% | 1016.5 hPa | 0 mm | - | 59 W/m² | - |
* Rain latest hour (hover to see other rain measurements)
** Current wind speed in m/s (hover to see current wind gust speed)